ADDS METAR Data INFO
IDs: Format: Raw Decoded Include TAF

Data at: 0932 UTC 11 Dec 2017

KHDN 110856Z AUTO 11013KT 10SM CLR M07/M13 A3056 RMK AO2 SLP382 T10721133 51007 FZRANO
KHDN 110756Z AUTO 10011KT 10SM CLR M07/M13 A3055 RMK AO2 SLP377 T10671133 FZRANO
KHDN 110656Z AUTO 17005KT 10SM CLR M09/M14 A3055 RMK AO2 SLP392 T10891139 FZRANO
KHDN 110556Z AUTO 10013KT 10SM CLR M04/M12 A3054 RMK AO2 SLP380 T10441117 10006 21061 400441106 51003 FZRANO
KHDN 110456Z AUTO 11014KT 10SM CLR M04/M12 A3053 RMK AO2 SLP387 T10441117 FZRANO
KHDN 110356Z AUTO 09010KT 10SM CLR M04/M11 A3055 RMK AO2 SLP397 T10391106 FZRANO
KHDN 110256Z AUTO 11010KT 10SM CLR M03/M12 A3053 RMK AO2 SLP393 T10331117 50000 FZRANO
KHDN 110056Z AUTO 10007KT 10SM CLR M01/M11 A3053 RMK AO2 SLP386 T10061111 FZRANO
KHDN 102356Z AUTO 10003KT 10SM CLR 01/M09 A3053 RMK AO2 SLP376 T00111094 10044 21017 58004 FZRANO
KHDN 102256Z AUTO 00000KT 10SM CLR 03/M08 A3053 RMK AO2 SLP372 T00331083
KHDN 102156Z AUTO 00000KT 10SM CLR 02/M09 A3054 RMK AO2 SLP377 T00171089 FZRANO
KHDN 102056Z AUTO 15003KT 10SM CLR 03/M08 A3054 RMK AO2 SLP374 T00281083 56019
KHDN 101956Z AUTO 13005KT 10SM CLR 02/M08 A3055 RMK AO2 SLP382 T00171078 FZRANO
KHDN 101856Z AUTO 13007KT 10SM CLR 00/M09 A3059 RMK AO2 SLP397 T00001094 FZRANO
KHDN 101756Z AUTO 12007KT 10SM CLR M02/M09 A3061 RMK AO2 SLP408 T10221094 11022 21106 50003 FZRANO
KHDN 101656Z AUTO 11010KT 10SM CLR M06/M12 A3061 RMK AO2 SLP416 T10561122 FZRANO
KHDN 101556Z AUTO 11011KT 10SM CLR M07/M13 A3060 RMK AO2 SLP418 T10721128 FZRANO
KHDN 101456Z AUTO 10011KT 10SM CLR M09/M14 A3060 RMK AO2 SLP423 T10941139 52004 FZRANO TSNO
KHDN 101356Z AUTO 11011KT 10SM CLR M11/M15 A3059 RMK AO2 SLP424 T11061150 FZRANO
KHDN 101256Z AUTO 11012KT 10SM CLR M09/M14 A3059 RMK AO2 SLP424 T10941139 FZRANO
KHDN 101156Z AUTO 10013KT 10SM CLR M08/M13 A3058 RMK AO2 SLP399 T10831128 11061 21089 58002 FZRANO
KHDN 101056Z AUTO 10010KT 10SM CLR M08/M13 A3058 RMK AO2 SLP399 T10831133 FZRANO
KHDN 100956Z AUTO 10011KT 10SM CLR M08/M12 A3059 RMK AO2 SLP402 T10781122 FZRANO
KHDN 100856Z AUTO 11009KT 10SM CLR M08/M13 A3059 RMK AO2 SLP391 T10781128 51002 FZRANO
KHDN 100756Z AUTO 12011KT 10SM CLR M08/M13 A3059 RMK AO2 SLP400 T10781128 FZRANO
KHDN 100656Z AUTO 11011KT 10SM CLR M07/M11 A3059 RMK AO2 SLP400 T10671111 FZRANO
KHDN 100556Z AUTO 10011KT 10SM CLR M06/M11 A3058 RMK AO2 SLP405 T10611106 10000 21072 400331111 53007 FZRANO
KHDN 100456Z AUTO 10009KT 10SM CLR M05/M10 A3057 RMK AO2 SLP404 T10501100 FZRANO
KHDN 100356Z AUTO 10010KT 10SM CLR M05/M11 A3056 RMK AO2 SLP408 T10501106 FZRANO
KHDN 100256Z AUTO 11008KT 10SM CLR M06/M12 A3055 RMK AO2 SLP411 T10561117 53009 FZRANO
KHDN 100156Z AUTO 10011KT 10SM CLR M06/M10 A3055 RMK AO2 SLP406 T10561100 FZRANO
KHDN 100056Z AUTO 11010KT 10SM CLR M06/M12 A3053 RMK AO2 SLP401 T10611122 FZRANO
KHDN 092356Z AUTO 07005KT 10SM CLR 00/M08 A3052 RMK AO2 SLP384 T00001083 10033 21044 51003 FZRANO
KHDN 092256Z AUTO 00000KT 10SM CLR 01/M08 A3052 RMK AO2 SLP380 T00061083 FZRANO
KHDN 092156Z AUTO 00000KT 10SM CLR 00/M07 A3051 RMK AO2 SLP378 T00001072 FZRANO